This is the latest recevied weather packets stored in our database for station/object Krauchnws. If no packets are shown the sender has not sent any weather packets the latest 10 day(s).
| Time | Temp. | Humidity | Pressure | Rain* | Wind** | Luminosity | Snow |
|---|---|---|---|---|---|---|---|
| 1778054532 | 11.67° C | 89% | 1005.1 hPa | 0 mm | - | - | - |
| 1778052731 | 10.56° C | 94% | 1005.6 hPa | 0 mm | - | - | - |
| 1778050932 | 10° C | 97% | 1005.6 hPa | 0 mm | - | - | - |
| 1778049131 | 9.44° C | 97% | 1005.7 hPa | 0 mm | - | - | - |
| 1778047331 | 8.33° C | 97% | 1005.3 hPa | 0 mm | - | - | - |
| 1778045531 | 7.78° C | 97% | 1005.5 hPa | 0 mm | - | - | - |
| 1778043731 | 7.78° C | 96% | 1005.6 hPa | 0 mm | - | - | - |
| 1778041932 | 7.22° C | 96% | 1005.8 hPa | 0 mm | - | - | - |
| 1778040131 | 7.78° C | 95% | 1006.1 hPa | 0 mm | - | - | - |
| 1778038331 | 8.33° C | 95% | 1006.1 hPa | 0 mm | - | - | - |
| 1778036532 | 8.33° C | 94% | 1006.6 hPa | 0 mm | - | - | - |
| 1778034732 | 8.89° C | 95% | 1006.7 hPa | 0 mm | - | - | - |
| 1778032932 | 9.44° C | 94% | 1006.8 hPa | 0 mm | - | - | - |
| 1778031131 | 10° C | 94% | 1007 hPa | 0 mm | - | - | - |
| 1778029332 | 10° C | 94% | 1007.3 hPa | 0 mm | - | - | - |
| 1778027529 | 9.44° C | 94% | 1007.3 hPa | 0 mm | - | - | - |
| 1778025729 | 10° C | 93% | 1007.4 hPa | 0 mm | - | - | - |
| 1778023929 | 10° C | 93% | 1007.6 hPa | 0 mm | - | - | - |
| 1778022129 | 10° C | 93% | 1007.6 hPa | 0 mm | - | - | - |
| 1778020330 | 9.44° C | 93% | 1007.8 hPa | 0 mm | - | - | - |
| 1778018529 | 10° C | 92% | 1007.8 hPa | 0 mm | - | - | - |
| 1778016731 | 10.56° C | 90% | 1008 hPa | 0.51 mm | - | - | - |
| 1778014935 | 10.56° C | 89% | 1008 hPa | 0.51 mm | - | - | - |
| 1778013129 | 11.11° C | 88% | 1007.6 hPa | 0.51 mm | - | - | - |
| 1778011330 | 11.67° C | 87% | 1007.6 hPa | 0.51 mm | - | - | - |
* Rain since midnight (hover to see other rain measurements)
** Current wind speed in m/s (hover to see current wind gust speed)